Time;durP1;ratioP1;P1;durP2;ratioP2;P2;SDS_P1;SDS_P2;PMS_P1;PMS_P2;Temp;Humidity;BMP_temperature;BMP_pressure;BME280_temperature;BME280_humidity;BME280_pressure;Samples;Min_cycle;Max_cycle;Signal;HPM_P1;HPM_P2
2021/09/01 00:00:23;;;;;;;33.87;11.80;;;;;;;14.40;100.00;102171.25;7403897;19;20400;-58
2021/09/01 00:02:54;;;;;;;32.23;11.43;;;;;;;14.42;100.00;102159.22;7399918;19;20426;-58
2021/09/01 00:05:24;;;;;;;23.43;12.17;;;;;;;14.38;100.00;102159.00;7403030;19;20376;-58
2021/09/01 00:07:56;;;;;;;29.03;11.70;;;;;;;14.25;100.00;102163.59;7401083;19;20453;-58
2021/09/01 00:10:26;;;;;;;31.93;12.37;;;;;;;14.25;100.00;102163.59;7399533;19;20653;-57
2021/09/01 00:12:55;;;;;;;30.17;13.40;;;;;;;14.30;100.00;102163.81;7392321;19;20434;-59
2021/09/01 00:15:25;;;;;;;32.67;12.23;;;;;;;14.23;100.00;102165.25;7402540;19;20399;-57
2021/09/01 00:17:55;;;;;;;34.23;12.70;;;;;;;14.31;100.00;102176.88;7399258;19;20404;-55
2021/09/01 00:20:26;;;;;;;25.73;11.90;;;;;;;14.21;100.00;102171.19;7403630;19;20455;-58
2021/09/01 00:22:58;;;;;;;43.40;12.77;;;;;;;14.25;100.00;102181.78;7398791;19;20506;-56
2021/09/01 00:25:27;;;;;;;32.80;12.60;;;;;;;14.17;100.00;102178.78;7402076;19;20395;-56
2021/09/01 00:27:57;;;;;;;27.17;12.80;;;;;;;14.13;100.00;102187.25;7397128;19;20399;-55
2021/09/01 00:30:27;;;;;;;26.80;12.43;;;;;;;14.11;100.00;102180.22;7400994;19;20464;-58
2021/09/01 00:32:56;;;;;;;34.63;12.13;;;;;;;14.20;100.00;102182.38;7398427;19;20422;-58
2021/09/01 00:35:26;;;;;;;23.30;10.77;;;;;;;14.12;100.00;102185.50;7401677;19;20451;-59
2021/09/01 00:37:58;;;;;;;24.60;12.33;;;;;;;14.08;100.00;102193.91;7398768;19;20407;-59
2021/09/01 00:40:28;;;;;;;36.63;13.23;;;;;;;14.09;100.00;102189.63;7402853;19;20404;-58
2021/09/01 00:42:58;;;;;;;25.60;11.30;;;;;;;14.12;100.00;102193.28;7398202;19;20430;-59
2021/09/01 00:45:27;;;;;;;35.17;11.70;;;;;;;14.18;100.00;102190.09;7399387;19;20901;-57
2021/09/01 00:47:57;;;;;;;24.53;10.87;;;;;;;14.06;100.00;102190.38;7398267;19;20486;-56
2021/09/01 00:50:27;;;;;;;30.00;12.27;;;;;;;14.07;100.00;102186.06;7400467;19;20406;-55
2021/09/01 00:52:59;;;;;;;20.93;10.50;;;;;;;13.99;100.00;102189.16;7397993;19;20403;-57
2021/09/01 00:55:29;;;;;;;27.77;12.83;;;;;;;14.09;100.00;102180.13;7400960;19;20409;-58
2021/09/01 00:57:58;;;;;;;33.30;11.73;;;;;;;14.10;100.00;102181.91;7397433;19;20428;-55
2021/09/01 01:00:35;;;;;;;30.37;12.40;;;;;;;14.16;100.00;102186.53;7401742;19;20424;-56
2021/09/01 01:03:06;;;;;;;31.80;11.00;;;;;;;14.13;100.00;102187.25;7396162;19;20423;-56
2021/09/01 01:05:35;;;;;;;21.73;9.87;;;;;;;14.15;100.00;102188.22;7400719;19;20409;-59
2021/09/01 01:08:07;;;;;;;25.43;11.73;;;;;;;14.09;100.00;102184.44;7397390;19;20704;-58
2021/09/01 01:10:37;;;;;;;27.30;10.03;;;;;;;14.08;100.00;102186.13;7399758;19;20474;-57
2021/09/01 01:13:06;;;;;;;23.70;9.97;;;;;;;14.04;100.00;102181.59;7396798;19;20680;-55
2021/09/01 01:15:39;;;;;;;24.27;10.17;;;;;;;13.99;100.00;102183.06;7400530;19;20384;-58
2021/09/01 01:18:09;;;;;;;27.47;10.37;;;;;;;14.02;100.00;102188.44;7396502;19;20419;-59
2021/09/01 01:20:39;;;;;;;29.53;10.93;;;;;;;14.07;100.00;102183.47;7400427;19;20392;-57
2021/09/01 01:23:12;;;;;;;26.70;10.60;;;;;;;13.95;100.00;102191.53;7396604;19;20431;-57
2021/09/01 01:25:44;;;;;;;24.13;11.63;;;;;;;13.96;100.00;102182.94;7401222;19;20396;-52
2021/09/01 01:28:14;;;;;;;28.20;10.57;;;;;;;14.01;100.00;102191.84;7396586;19;20411;-57
2021/09/01 01:30:44;;;;;;;22.10;9.73;;;;;;;13.97;100.00;102195.97;7399612;19;20463;-55
2021/09/01 01:33:15;;;;;;;26.57;11.10;;;;;;;14.06;100.00;102190.38;7396451;19;20765;-58
2021/09/01 01:35:46;;;;;;;22.20;9.57;;;;;;;13.97;100.00;102197.69;7398388;19;20463;-59
2021/09/01 01:38:20;;;;;;;26.43;11.20;;;;;;;13.91;100.00;102193.94;7396364;19;20499;-57
2021/09/01 01:40:52;;;;;;;24.10;9.80;;;;;;;13.94;100.00;102195.81;7400490;19;20447;-59
2021/09/01 01:43:21;;;;;;;26.93;11.23;;;;;;;14.01;100.00;102202.22;7396018;19;20487;-57
2021/09/01 01:45:51;;;;;;;34.07;11.27;;;;;;;14.01;100.00;102203.09;7399408;19;20395;-56
2021/09/01 01:48:20;;;;;;;36.67;13.63;;;;;;;14.00;100.00;102205.63;7396394;19;20419;-57
2021/09/01 01:50:50;;;;;;;24.20;11.77;;;;;;;14.10;100.00;102205.25;7398931;19;20451;-58
2021/09/01 01:53:19;;;;;;;33.20;15.17;;;;;;;14.09;100.00;102200.88;7396800;19;20519;-57
2021/09/01 01:55:51;;;;;;;29.93;13.40;;;;;;;14.03;100.00;102208.38;7397612;19;20753;-57
2021/09/01 01:58:21;;;;;;;27.13;14.03;;;;;;;14.10;100.00;102202.66;7395860;19;20487;-58
2021/09/01 02:00:51;;;;;;;26.60;12.53;;;;;;;14.02;100.00;102204.00;7399978;19;20451;-59
2021/09/01 02:03:21;;;;;;;34.13;14.50;;;;;;;14.11;100.00;102191.47;7395723;19;20975;-57
2021/09/01 02:05:51;;;;;;;23.33;11.70;;;;;;;14.04;100.00;102192.88;7399048;19;20408;-57
2021/09/01 02:08:21;;;;;;;29.83;12.67;;;;;;;14.20;100.00;102188.44;7395454;19;20944;-55
2021/09/01 02:10:53;;;;;;;24.60;12.13;;;;;;;14.17;100.00;102191.78;7400947;19;20487;-54
2021/09/01 02:13:22;;;;;;;26.83;14.00;;;;;;;14.18;100.00;102184.88;7395151;19;20419;-58
2021/09/01 02:15:52;;;;;;;29.33;12.77;;;;;;;14.08;100.00;102183.53;7398700;19;20492;-58
2021/09/01 02:18:21;;;;;;;34.57;13.10;;;;;;;14.11;100.00;102183.69;7395486;19;20422;-58
2021/09/01 02:20:51;;;;;;;22.90;11.30;;;;;;;14.13;100.00;102186.34;7399392;19;20384;-59
2021/09/01 02:23:20;;;;;;;107.00;51.60;;;;;;;14.31;100.00;102189.00;7392462;19;20429;-59
2021/09/01 02:25:52;;;;;;;22.10;11.67;;;;;;;14.47;100.00;102181.94;7398394;19;20688;-59
2021/09/01 02:28:22;;;;;;;36.33;17.10;;;;;;;14.43;100.00;102180.91;7393834;19;20415;-57
2021/09/01 02:30:52;;;;;;;35.93;16.53;;;;;;;14.41;100.00;102188.59;7397783;19;20451;-56
2021/09/01 02:33:21;;;;;;;30.60;11.07;;;;;;;14.40;100.00;102181.66;7394843;19;20419;-59
2021/09/01 02:35:51;;;;;;;23.57;11.23;;;;;;;14.44;100.00;102183.59;7401555;19;20391;-59
2021/09/01 02:38:20;;;;;;;23.90;11.20;;;;;;;14.44;100.00;102175.78;7402595;19;20742;-58
2021/09/01 02:40:52;;;;;;;30.50;12.17;;;;;;;14.39;100.00;102169.47;7406513;19;20705;-54
2021/09/01 02:43:24;;;;;;;25.80;9.80;;;;;;;14.35;100.00;102167.53;7401796;19;20406;-57
2021/09/01 02:45:53;;;;;;;28.60;10.00;;;;;;;14.39;100.00;102168.56;7403927;19;20443;-58
2021/09/01 02:48:23;;;;;;;28.57;12.00;;;;;;;14.37;100.00;102167.63;7401888;19;20419;-58
2021/09/01 02:50:52;;;;;;;22.87;9.97;;;;;;;14.42;100.00;102169.63;7404763;19;20396;-58
2021/09/01 02:53:22;;;;;;;29.63;12.70;;;;;;;14.42;100.00;102163.56;7401268;19;20418;-57
2021/09/01 02:55:54;;;;;;;23.93;10.80;;;;;;;14.31;100.00;102160.44;7405221;19;20885;-57
2021/09/01 02:58:23;;;;;;;35.80;12.03;;;;;;;14.38;100.00;102161.59;7401430;19;20426;-58
2021/09/01 03:00:53;;;;;;;28.50;10.40;;;;;;;14.37;100.00;102150.34;7405925;19;20451;-58
2021/09/01 03:03:23;;;;;;;27.27;11.90;;;;;;;14.51;100.00;102152.72;7397689;19;20423;-56
2021/09/01 03:05:52;;;;;;;21.13;10.77;;;;;;;14.42;100.00;102154.03;7403263;19;20654;-56
2021/09/01 03:08:22;;;;;;;23.80;11.70;;;;;;;14.27;100.00;102150.72;7401229;19;20411;-58
2021/09/01 03:10:54;;;;;;;26.97;11.40;;;;;;;14.20;100.00;102151.22;7404287;19;20471;-57
2021/09/01 03:13:23;;;;;;;29.43;10.30;;;;;;;14.39;100.00;102153.91;7400969;19;20471;-58
2021/09/01 03:15:53;;;;;;;24.20;12.00;;;;;;;14.35;100.00;102162.34;7405088;19;20462;-57
2021/09/01 03:18:22;;;;;;;24.80;11.70;;;;;;;14.25;100.00;102154.94;7401118;19;20876;-59
2021/09/01 03:20:52;;;;;;;25.23;10.50;;;;;;;14.12;100.00;102162.13;7404953;19;20472;-58
2021/09/01 03:23:22;;;;;;;28.50;11.63;;;;;;;14.32;100.00;102163.09;7399196;19;20421;-58
2021/09/01 03:25:54;;;;;;;24.00;10.70;;;;;;;14.22;100.00;102159.97;7404111;19;20732;-58
2021/09/01 03:28:23;;;;;;;26.50;11.20;;;;;;;14.27;100.00;102166.28;7400988;19;20889;-57
2021/09/01 03:30:53;;;;;;;24.17;11.70;;;;;;;14.21;100.00;102165.97;7403985;19;20459;-56
2021/09/01 03:33:22;;;;;;;23.03;12.00;;;;;;;14.18;100.00;102171.91;7399883;19;20726;-59
2021/09/01 03:35:52;;;;;;;26.73;10.80;;;;;;;14.37;100.00;102176.31;7403687;19;20447;-57
2021/09/01 03:38:21;;;;;;;25.50;11.80;;;;;;;14.38;100.00;102172.91;7399938;19;20482;-57
2021/09/01 03:40:53;;;;;;;28.40;12.13;;;;;;;14.19;100.00;102165.91;7403665;19;20383;-59
2021/09/01 03:43:23;;;;;;;25.23;11.00;;;;;;;14.17;100.00;102170.13;7400099;19;20414;-58
2021/09/01 03:45:54;;;;;;;32.40;12.70;;;;;;;14.03;100.00;102170.34;7403428;19;20459;-55
2021/09/01 03:48:24;;;;;;;31.80;13.17;;;;;;;14.15;100.00;102177.84;7398162;19;20428;-59
2021/09/01 03:50:54;;;;;;;38.73;12.63;;;;;;;13.98;100.00;102178.69;7403596;19;20451;-56
2021/09/01 03:53:23;;;;;;;33.83;13.53;;;;;;;14.04;100.00;102181.59;7389417;19;20423;-58
2021/09/01 03:55:55;;;;;;;28.03;13.73;;;;;;;14.03;100.00;102180.72;7403084;19;20659;-56
2021/09/01 03:58:25;;;;;;;32.40;17.63;;;;;;;14.07;100.00;102186.06;7398646;19;20424;-59
2021/09/01 04:00:54;;;;;;;25.10;12.37;;;;;;;14.14;100.00;102178.66;7403178;19;20475;-57
2021/09/01 04:03:24;;;;;;;34.43;15.80;;;;;;;14.03;100.00;102187.59;7403492;19;20472;-57
2021/09/01 04:05:54;;;;;;;32.40;14.13;;;;;;;14.01;100.00;102186.66;7402613;19;20447;-57
2021/09/01 04:08:23;;;;;;;33.83;16.57;;;;;;;14.11;100.00;102191.47;7396208;19;20495;-58
2021/09/01 04:10:55;;;;;;;34.43;16.40;;;;;;;14.13;100.00;102189.84;7403110;19;20681;-56
2021/09/01 04:13:25;;;;;;;28.97;13.90;;;;;;;13.96;100.00;102189.03;7395811;19;20503;-57
2021/09/01 04:15:54;;;;;;;30.17;14.63;;;;;;;13.99;100.00;102194.34;7401982;19;20715;-57
2021/09/01 04:18:24;;;;;;;27.33;14.60;;;;;;;14.08;100.00;102193.91;7394852;19;20448;-58
2021/09/01 04:20:53;;;;;;;25.70;14.17;;;;;;;14.16;100.00;102186.53;7403200;19;20387;-57
2021/09/01 04:23:23;;;;;;;33.73;14.37;;;;;;;14.07;100.00;102191.25;7395558;19;20751;-57
2021/09/01 04:25:52;;;;;;;28.37;14.53;;;;;;;14.11;100.00;102194.06;7402135;19;20384;-59
2021/09/01 04:28:24;;;;;;;33.70;13.50;;;;;;;14.06;100.00;102187.78;7392755;19;20494;-58
2021/09/01 04:30:54;;;;;;;31.53;15.03;;;;;;;14.03;100.00;102191.09;7402677;19;20384;-56
2021/09/01 04:33:23;;;;;;;36.73;14.60;;;;;;;14.00;100.00;102193.53;7394803;19;20403;-58
2021/09/01 04:35:53;;;;;;;32.90;14.97;;;;;;;14.07;100.00;102194.75;7400566;19;20412;-59
2021/09/01 04:38:23;;;;;;;31.73;14.97;;;;;;;14.02;100.00;102193.63;7395142;19;20506;-57
2021/09/01 04:40:52;;;;;;;39.20;15.30;;;;;;;14.14;100.00;102191.63;7402593;19;20472;-58
2021/09/01 04:43:24;;;;;;;35.73;15.00;;;;;;;14.05;100.00;102198.94;7393423;19;20857;-59
2021/09/01 04:45:54;;;;;;;35.37;15.10;;;;;;;14.14;100.00;102204.63;7402091;19;20384;-58
2021/09/01 04:48:24;;;;;;;40.17;14.60;;;;;;;14.19;100.00;102197.03;7391708;19;20431;-57
2021/09/01 04:50:54;;;;;;;31.63;14.77;;;;;;;14.16;100.00;102197.78;7401159;19;20392;-56
2021/09/01 04:53:23;;;;;;;31.83;13.80;;;;;;;14.06;100.00;102205.94;7393926;19;20470;-54
2021/09/01 04:55:53;;;;;;;38.63;14.20;;;;;;;14.10;100.00;102207.84;7401076;19;20455;-54
2021/09/01 04:58:25;;;;;;;27.30;13.00;;;;;;;14.06;100.00;102205.94;7393338;19;20483;-57
2021/09/01 05:00:55;;;;;;;33.40;14.40;;;;;;;13.97;100.00;102205.47;7401927;19;20849;-56
2021/09/01 05:03:25;;;;;;;30.50;13.90;;;;;;;13.95;100.00;102207.09;7394279;19;20419;-56
2021/09/01 05:05:55;;;;;;;35.33;15.03;;;;;;;14.02;100.00;102209.19;7400580;19;20384;-52
2021/09/01 05:08:24;;;;;;;31.93;14.90;;;;;;;14.05;100.00;102214.50;7394418;19;20793;-54
2021/09/01 05:10:54;;;;;;;31.93;14.70;;;;;;;13.88;100.00;102217.16;7399836;19;20889;-57
2021/09/01 05:13:26;;;;;;;35.70;16.17;;;;;;;14.01;100.00;102218.66;7393899;19;20539;-57
2021/09/01 05:16:00;;;;;;;36.43;18.00;;;;;;;14.04;100.00;102220.53;7400607;19;20416;-57
2021/09/01 05:18:29;;;;;;;33.00;16.57;;;;;;;14.00;100.00;102226.38;7394203;19;20423;-55
2021/09/01 05:21:01;;;;;;;35.83;18.10;;;;;;;13.86;100.00;102223.97;7401212;19;20396;-57
2021/09/01 05:23:34;;;;;;;40.27;19.40;;;;;;;14.00;100.00;102226.38;7393642;19;20894;-57
2021/09/01 05:26:05;;;;;;;36.40;18.50;;;;;;;14.00;100.00;102231.56;7400179;19;20460;-58
2021/09/01 05:28:38;;;;;;;40.23;19.17;;;;;;;13.97;100.00;102242.69;7395077;19;20423;-59
2021/09/01 05:31:09;;;;;;;50.07;19.90;;;;;;;13.98;100.00;102235.78;7400852;19;20448;-57
2021/09/01 05:33:40;;;;;;;45.63;20.20;;;;;;;13.91;100.00;102238.06;7397878;19;20445;-60
2021/09/01 05:36:10;;;;;;;40.30;18.63;;;;;;;13.91;100.00;102240.66;7393825;19;20719;-60
2021/09/01 05:38:39;;;;;;;49.80;20.07;;;;;;;13.97;100.00;102244.38;7400526;19;20463;-57
2021/09/01 05:41:09;;;;;;;35.07;19.23;;;;;;;13.85;100.00;102237.75;7400376;19;20402;-58
2021/09/01 05:43:41;;;;;;;37.27;17.80;;;;;;;13.90;100.00;102241.47;7399403;19;20446;-59
2021/09/01 05:46:12;;;;;;;30.80;16.57;;;;;;;13.95;100.00;102244.28;7391184;19;20661;-57
2021/09/01 05:48:42;;;;;;;35.30;17.10;;;;;;;13.99;100.00;102240.16;7399844;19;20383;-57
2021/09/01 05:51:13;;;;;;;34.33;16.80;;;;;;;13.92;100.00;102238.97;7392795;19;20464;-55
2021/09/01 05:53:42;;;;;;;29.87;16.97;;;;;;;14.04;100.00;102243.88;7397896;19;20443;-58
2021/09/01 05:56:12;;;;;;;40.27;17.93;;;;;;;14.01;100.00;102246.31;7392101;19;20388;-58
2021/09/01 05:58:46;;;;;;;46.87;18.67;;;;;;;14.17;100.00;102243.69;7399658;19;20724;-59
2021/09/01 06:01:17;;;;;;;30.67;17.10;;;;;;;14.01;100.00;102235.94;7393414;19;20386;-56
2021/09/01 06:03:47;;;;;;;25.53;14.70;;;;;;;14.03;100.00;102240.41;7398902;19;20700;-56
2021/09/01 06:06:17;;;;;;;30.20;15.53;;;;;;;13.97;100.00;102242.69;7394144;19;20388;-57
2021/09/01 06:08:47;;;;;;;31.00;14.80;;;;;;;14.07;100.00;102244.06;7399204;19;20423;-57
2021/09/01 06:11:19;;;;;;;34.43;14.70;;;;;;;14.05;100.00;102248.25;7395795;19;20394;-53
2021/09/01 06:13:51;;;;;;;58.20;29.30;;;;;;;14.08;100.00;102248.41;7397060;19;20702;-56
2021/09/01 06:16:20;;;;;;;33.00;18.60;;;;;;;14.09;100.00;102250.19;7395456;19;20398;-56
2021/09/01 06:18:50;;;;;;;28.70;14.13;;;;;;;14.06;100.00;102246.56;7399042;19;20459;-59
2021/09/01 06:21:19;;;;;;;30.37;16.10;;;;;;;14.00;100.00;102257.53;7395053;19;20396;-58
2021/09/01 06:23:49;;;;;;;25.00;14.73;;;;;;;14.01;100.00;102257.59;7397687;19;20392;-58
2021/09/01 06:26:18;;;;;;;41.30;22.00;;;;;;;14.04;100.00;102257.75;7395147;19;20471;-58
2021/09/01 06:28:50;;;;;;;33.80;18.57;;;;;;;14.08;100.00;102261.41;7398562;19;20745;-57
2021/09/01 06:31:20;;;;;;;49.50;23.33;;;;;;;14.08;100.00;102266.59;7395563;19;20846;-58
2021/09/01 06:33:50;;;;;;;31.00;15.03;;;;;;;14.11;100.00;102266.72;7396730;19;20395;-58
2021/09/01 06:36:19;;;;;;;31.90;14.77;;;;;;;14.17;100.00;102266.16;7394678;19;20459;-58
2021/09/01 06:38:49;;;;;;;35.10;16.20;;;;;;;14.28;100.00;102264.13;7397037;19;20484;-57
2021/09/01 06:41:18;;;;;;;38.97;17.60;;;;;;;14.38;100.00;102266.38;7394931;19;20460;-59
2021/09/01 06:43:50;;;;;;;24.70;14.50;;;;;;;14.27;100.00;102257.16;7397866;19;20384;-59
2021/09/01 06:46:20;;;;;;;27.10;15.10;;;;;;;14.49;100.00;102260.78;7394489;19;20388;-57
2021/09/01 06:48:49;;;;;;;26.63;13.97;;;;;;;14.45;100.00;102255.47;7398040;19;20388;-59
2021/09/01 06:51:19;;;;;;;27.43;12.63;;;;;;;14.37;100.00;102249.00;7394835;19;20460;-58
2021/09/01 06:53:48;;;;;;;23.03;12.10;;;;;;;14.42;100.00;102255.28;7396168;19;20717;-59
2021/09/01 06:56:19;;;;;;;25.57;13.97;;;;;;;14.34;100.00;102251.44;7393133;19;20456;-56
2021/09/01 06:59:00;;;;;;;23.27;12.63;;;;;;;14.43;100.00;102259.72;7398118;19;20402;-58
2021/09/01 07:01:30;;;;;;;29.70;12.03;;;;;;;14.54;100.00;102247.25;7394114;19;20442;-58
2021/09/01 07:04:00;;;;;;;30.30;13.30;;;;;;;14.53;100.00;102245.47;7397591;19;20463;-54
2021/09/01 07:06:29;;;;;;;27.33;13.37;;;;;;;14.56;100.00;102244.72;7393994;19;20433;-59
2021/09/01 07:08:59;;;;;;;29.60;15.27;;;;;;;14.50;100.00;102244.44;7398164;19;20472;-58
2021/09/01 07:11:29;;;;;;;19.97;12.43;;;;;;;14.50;100.00;102239.25;7394275;19;20467;-55
2021/09/01 07:14:01;;;;;;;29.17;13.13;;;;;;;14.49;100.00;102245.22;7395305;19;20388;-58
2021/09/01 07:16:30;;;;;;;30.37;13.13;;;;;;;14.65;100.00;102245.16;7389553;19;20442;-58
2021/09/01 07:19:00;;;;;;;20.03;12.23;;;;;;;14.70;100.00;102243.69;7397931;19;20402;-58
2021/09/01 07:21:29;;;;;;;29.10;13.20;;;;;;;14.82;100.00;102245.13;7393205;19;20660;-59
2021/09/01 07:24:00;;;;;;;31.63;16.90;;;;;;;14.79;100.00;102250.16;7404858;19;20874;-58
2021/09/01 07:26:30;;;;;;;29.33;11.53;;;;;;;14.78;100.00;102251.91;7397673;19;20435;-56
2021/09/01 07:29:02;;;;;;;24.87;14.37;;;;;;;14.80;100.00;102249.34;7405005;19;20860;-58
2021/09/01 07:31:31;;;;;;;26.27;13.60;;;;;;;14.88;100.00;102253.22;7394126;19;20399;-58
2021/09/01 07:34:01;;;;;;;22.63;13.10;;;;;;;15.01;100.00;102251.22;7401117;19;20870;-54
2021/09/01 07:36:30;;;;;;;21.80;13.27;;;;;;;15.12;100.00;102253.47;7397413;19;20435;-60
2021/09/01 07:39:00;;;;;;;29.20;13.60;;;;;;;15.29;100.00;102249.88;7404615;19;20850;-58
2021/09/01 07:41:29;;;;;;;26.20;14.77;;;;;;;15.07;100.00;102246.31;7397728;19;20626;-55
2021/09/01 07:44:01;;;;;;;27.90;13.30;;;;;;;15.14;100.00;102250.06;7404275;19;20443;-56
2021/09/01 07:46:31;;;;;;;23.47;14.10;;;;;;;15.17;100.00;102250.22;7397322;19;20411;-59
2021/09/01 07:49:01;;;;;;;23.43;13.97;;;;;;;15.16;100.00;102259.72;7404555;19;20406;-57
2021/09/01 07:51:31;;;;;;;28.10;15.50;;;;;;;15.22;100.00;102260.00;7394631;19;20495;-59
2021/09/01 07:54:00;;;;;;;26.93;13.83;;;;;;;15.39;100.00;102260.78;7402422;19;20842;-58
2021/09/01 07:56:30;;;;;;;27.40;13.50;;;;;;;15.45;100.00;102260.19;7396215;19;20435;-58
2021/09/01 07:59:02;;;;;;;22.60;12.83;;;;;;;15.39;100.00;102265.97;7404204;19;20395;-59
2021/09/01 08:01:32;;;;;;;19.90;12.40;;;;;;;15.52;100.00;102264.84;7399854;19;20418;-59
2021/09/01 08:04:02;;;;;;;28.23;13.00;;;;;;;15.64;100.00;102266.22;7403823;19;20388;-58
2021/09/01 08:06:31;;;;;;;22.37;13.30;;;;;;;15.71;100.00;102262.16;7399744;19;20404;-58
2021/09/01 08:09:01;;;;;;;20.60;12.33;;;;;;;15.87;100.00;102256.81;7402972;19;20397;-58
2021/09/01 08:11:31;;;;;;;18.60;11.67;;;;;;;15.93;100.00;102251.91;7399887;19;21061;-57
2021/09/01 08:14:03;;;;;;;24.30;12.57;;;;;;;15.98;100.00;102252.09;7402025;19;20388;-58
2021/09/01 08:16:32;;;;;;;23.00;11.43;;;;;;;16.06;100.00;102252.44;7398393;19;20408;-58
2021/09/01 08:19:02;;;;;;;19.70;11.23;;;;;;;16.20;100.00;102258.22;7403305;19;20376;-57
2021/09/01 08:21:32;;;;;;;19.90;11.50;;;;;;;16.27;100.00;102260.28;7398897;19;20741;-57
2021/09/01 08:24:01;;;;;;;25.57;11.70;;;;;;;16.29;100.00;102262.94;7403040;19;20848;-58
2021/09/01 08:26:31;;;;;;;31.73;12.53;;;;;;;16.38;100.00;102265.94;7396873;19;20425;-54
2021/09/01 08:29:03;;;;;;;18.00;10.60;;;;;;;16.56;100.00;102254.50;7402871;19;20463;-56
2021/09/01 08:31:32;;;;;;;18.53;9.60;;;;;;;16.73;100.00;102253.44;7395786;19;20407;-55
2021/09/01 08:34:02;;;;;;;22.20;12.47;;;;;;;16.82;100.00;102247.72;7399951;19;20392;-57
2021/09/01 08:36:31;;;;;;;22.80;10.20;;;;;;;16.96;100.00;102244.75;7394864;19;20705;-57
2021/09/01 08:39:01;;;;;;;22.50;10.53;;;;;;;16.97;100.00;102243.94;7402669;19;20372;-55
2021/09/01 08:41:30;;;;;;;25.00;12.03;;;;;;;16.98;100.00;102245.72;7394720;19;20439;-57
2021/09/01 08:44:03;;;;;;;18.50;11.03;;;;;;;17.20;100.00;102251.78;7401726;19;20395;-57
2021/09/01 08:46:34;;;;;;;19.00;10.30;;;;;;;17.30;100.00;102250.41;7393611;19;20945;-57
2021/09/01 08:49:05;;;;;;;21.97;9.70;;;;;;;17.38;100.00;102249.88;7402496;19;20448;-57
2021/09/01 08:51:34;;;;;;;15.47;9.43;;;;;;;17.55;100.00;102241.78;7394909;19;20700;-58
2021/09/01 08:54:04;;;;;;;17.53;10.30;;;;;;;17.58;100.00;102241.00;7401085;19;20384;-58
2021/09/01 08:56:33;;;;;;;19.20;10.10;;;;;;;17.68;100.00;102238.78;7394072;19;20471;-55
2021/09/01 08:59:05;;;;;;;18.63;8.73;;;;;;;17.80;100.00;102240.06;7402252;19;20680;-57
2021/09/01 09:01:43;;;;;;;14.83;8.10;;;;;;;17.89;100.00;102240.38;7394516;19;20410;-57
2021/09/01 09:04:20;;;;;;;18.03;9.17;;;;;;;17.93;100.00;102239.66;7400882;19;20391;-57
2021/09/01 09:06:52;;;;;;;16.50;8.13;;;;;;;17.96;100.00;102233.66;7393020;19;20761;-55
2021/09/01 09:09:22;;;;;;;15.93;9.47;;;;;;;17.99;100.00;102233.75;7401681;19;20461;-57
2021/09/01 09:11:52;;;;;;;17.33;9.47;;;;;;;18.06;100.00;102229.66;7393802;19;20417;-54
2021/09/01 09:14:26;;;;;;;18.27;8.67;;;;;;;18.26;100.00;102229.44;7400116;19;20472;-56
2021/09/01 09:17:05;;;;;;;16.27;10.03;;;;;;;18.29;100.00;102226.91;7393637;19;20436;-57
2021/09/01 09:19:52;;;;;;;19.93;8.20;;;;;;;18.47;100.00;102232.75;7401396;19;20388;-57
2021/09/01 09:22:24;;;;;;;15.97;7.53;;;;;;;18.70;100.00;102234.31;7392155;19;20494;-55
2021/09/01 09:25:05;;;;;;;17.17;8.73;;;;;;;18.76;100.00;102230.19;7401264;19;20451;-57
2021/09/01 09:27:39;;;;;;;18.20;9.07;;;;;;;18.67;100.00;102235.13;7392902;19;20415;-57
2021/09/01 09:30:30;;;;;;;19.03;10.50;;;;;;;18.92;100.00;102225.41;7400833;19;20471;-54
2021/09/01 09:33:01;;;;;;;20.13;7.73;;;;;;;18.86;100.00;102230.47;7392347;19;20435;-57
2021/09/01 09:35:49;;;;;;;16.50;8.37;;;;;;;18.84;100.00;102229.53;7398802;19;20386;-54
2021/09/01 09:38:28;;;;;;;11.70;7.63;;;;;;;18.95;100.00;102225.53;7393118;19;20486;-58
2021/09/01 09:40:57;;;;;;;13.23;7.93;;;;;;;19.08;100.00;102225.94;7399132;19;20375;-57
2021/09/01 09:43:28;;;;;;;15.97;8.90;;;;;;;19.22;100.00;102228.97;7393355;19;20896;-56
2021/09/01 09:46:06;;;;;;;18.27;7.50;;;;;;;19.27;100.00;102227.34;7399689;19;20653;-57
2021/09/01 09:48:38;;;;;;;13.30;6.90;;;;;;;19.34;100.00;102226.69;7399732;19;20411;-55
2021/09/01 09:51:09;;;;;;;17.40;8.33;;;;;;;19.39;100.00;102227.69;7400413;19;20447;-55
2021/09/01 09:53:40;;;;;;;15.67;6.77;;;;;;;19.46;100.00;102220.91;7399436;19;20738;-55
2021/09/01 09:56:17;;;;;;;12.33;7.60;;;;;;;19.50;100.00;102214.03;7392274;19;20398;-55
2021/09/01 09:58:48;;;;;;;18.33;7.63;;;;;;;19.53;100.00;102214.13;7398572;19;20405;-54
2021/09/01 10:01:21;;;;;;;15.23;6.67;;;;;;;19.68;100.00;102217.16;7396055;19;20400;-56
2021/09/01 10:03:52;;;;;;;12.77;6.43;;;;;;;19.74;100.00;102224.28;7399584;19;20704;-53
2021/09/01 10:06:22;;;;;;;13.27;7.20;;;;;;;19.84;100.00;102215.84;7398390;19;20406;-55
2021/09/01 10:08:53;;;;;;;19.23;7.00;;;;;;;19.90;100.00;102222.09;7399478;19;20460;-56
2021/09/01 10:11:25;;;;;;;14.17;6.90;;;;;;;19.92;100.00;102223.91;7396010;19;20379;-55
2021/09/01 10:13:55;;;;;;;11.80;6.70;;;;;;;20.06;100.00;102220.78;7398879;19;20387;-55
2021/09/01 10:16:33;;;;;;;14.20;7.60;;;;;;;20.06;100.00;102221.66;7389799;19;20395;-56
2021/09/01 10:19:08;;;;;;;12.63;7.00;;;;;;;20.22;100.00;102222.94;7400063;19;20383;-57
2021/09/01 10:21:40;;;;;;;9.63;6.47;;;;;;;20.26;100.00;102231.78;7391009;19;20403;-57
2021/09/01 10:24:20;;;;;;;12.70;6.90;;;;;;;20.36;100.00;102232.88;7398991;19;20395;-56
2021/09/01 10:27:08;;;;;;;12.03;7.57;;;;;;;20.39;100.00;102232.94;7391355;19;20486;-55
2021/09/01 10:29:49;;;;;;;13.30;6.50;;;;;;;20.39;100.00;102240.81;7398979;19;20388;-57
2021/09/01 10:32:24;;;;;;;11.87;7.37;;;;;;;20.45;100.00;102240.09;7391359;19;20490;-57
2021/09/01 10:35:24;;;;;;;11.43;6.47;;;;;;;20.37;100.00;102227.66;7396512;19;20397;-56
2021/09/01 10:37:54;;;;;;;13.47;7.30;;;;;;;20.46;100.00;102219.13;7392017;19;20410;-54
2021/09/01 10:40:54;;;;;;;13.00;6.37;;;;;;;20.64;100.00;102223.94;7398779;19;20395;-56
2021/09/01 10:43:24;;;;;;;11.30;6.80;;;;;;;20.73;100.00;102225.00;7389868;19;20873;-55
2021/09/01 10:45:58;;;;;;;13.90;8.30;;;;;;;20.80;100.00;102221.66;7398135;19;20512;-57
2021/09/01 10:48:30;;;;;;;12.20;7.50;;;;;;;21.02;100.00;102214.31;7391222;19;20482;-55
2021/09/01 10:51:00;;;;;;;14.73;6.70;;;;;;;21.16;100.00;102223.34;7396738;19;20479;-56
2021/09/01 10:53:30;;;;;;;13.30;7.30;;;;;;;20.81;100.00;102212.94;7390882;19;20408;-56
2021/09/01 10:56:05;;;;;;;11.83;7.47;;;;;;;20.85;100.00;102206.94;7396753;19;20451;-54
2021/09/01 10:58:36;;;;;;;15.30;6.47;;;;;;;20.86;100.00;102216.56;7404151;19;20418;-55
2021/09/01 11:01:11;;;;;;;20.97;7.77;;;;;;;20.47;100.00;102222.66;7405959;19;20392;-56
2021/09/01 11:03:49;;;;;;;16.37;6.73;;;;;;;20.56;100.00;102222.84;7404865;19;20421;-55
2021/09/01 11:06:27;;;;;;;17.20;7.60;;;;;;;20.79;100.00;102219.88;7401217;19;20392;-57
2021/09/01 11:09:09;;;;;;;11.80;7.20;;;;;;;21.11;100.00;102222.34;7404190;19;20439;-57
2021/09/01 11:11:52;;;;;;;13.90;7.10;;;;;;;21.30;100.00;102212.22;7401653;19;20474;-56
2021/09/01 11:14:39;;;;;;;12.10;6.80;;;;;;;21.07;100.00;102217.00;7405064;19;20425;-56
2021/09/01 11:17:11;;;;;;;12.80;7.33;;;;;;;21.01;100.00;102213.41;7400996;19;20423;-58
2021/09/01 11:19:44;;;;;;;15.73;8.90;;;;;;;21.33;100.00;102219.28;7405363;19;20388;-55
2021/09/01 11:22:15;;;;;;;14.13;7.00;;;;;;;21.27;100.00;102207.81;7397541;19;20731;-56